sensor_id;sensor_type;location;lat;lon;timestamp;pressure;altitude;pressure_sealevel;temperature
49785;BMP280;35679;38.732;-121.358;2022-12-10T00:01:19;101534.63;;;16.21
49785;BMP280;35679;38.732;-121.358;2022-12-10T00:04:10;101531.97;;;16.21
49785;BMP280;35679;38.732;-121.358;2022-12-10T00:07:00;101542.53;;;16.15
49785;BMP280;35679;38.732;-121.358;2022-12-10T00:09:50;101538.03;;;16.15
49785;BMP280;35679;38.732;-121.358;2022-12-10T00:12:39;101517.91;;;16.13
49785;BMP280;35679;38.732;-121.358;2022-12-10T00:15:28;101512.16;;;16.09
49785;BMP280;35679;38.732;-121.358;2022-12-10T00:18:18;101514.53;;;16.04
49785;BMP280;35679;38.732;-121.358;2022-12-10T00:21:13;101516.56;;;16.02
49785;BMP280;35679;38.732;-121.358;2022-12-10T00:24:04;101523.06;;;16.00
49785;BMP280;35679;38.732;-121.358;2022-12-10T00:26:56;101525.25;;;15.96
49785;BMP280;35679;38.732;-121.358;2022-12-10T00:29:45;101523.44;;;15.97
49785;BMP280;35679;38.732;-121.358;2022-12-10T00:32:35;101520.94;;;15.95
49785;BMP280;35679;38.732;-121.358;2022-12-10T00:35:26;101530.13;;;15.93
49785;BMP280;35679;38.732;-121.358;2022-12-10T00:38:16;101529.84;;;15.88
49785;BMP280;35679;38.732;-121.358;2022-12-10T00:41:09;101542.97;;;15.89
49785;BMP280;35679;38.732;-121.358;2022-12-10T00:44:00;101534.34;;;15.87
49785;BMP280;35679;38.732;-121.358;2022-12-10T00:46:49;101530.22;;;15.85
49785;BMP280;35679;38.732;-121.358;2022-12-10T00:49:39;101525.69;;;15.85
49785;BMP280;35679;38.732;-121.358;2022-12-10T00:52:28;101524.03;;;15.84
49785;BMP280;35679;38.732;-121.358;2022-12-10T00:55:17;101523.22;;;15.84
49785;BMP280;35679;38.732;-121.358;2022-12-10T00:58:08;101510.13;;;15.82
49785;BMP280;35679;38.732;-121.358;2022-12-10T01:04:02;101492.88;;;15.78
49785;BMP280;35679;38.732;-121.358;2022-12-10T01:06:53;101490.56;;;15.75
49785;BMP280;35679;38.732;-121.358;2022-12-10T01:09:43;101488.06;;;15.74
49785;BMP280;35679;38.732;-121.358;2022-12-10T01:12:34;101490.06;;;15.72
49785;BMP280;35679;38.732;-121.358;2022-12-10T01:15:23;101484.94;;;15.71
49785;BMP280;35679;38.732;-121.358;2022-12-10T01:18:14;101491.47;;;15.68
49785;BMP280;35679;38.732;-121.358;2022-12-10T01:21:07;101493.31;;;15.68
49785;BMP280;35679;38.732;-121.358;2022-12-10T01:23:57;101494.31;;;15.67
49785;BMP280;35679;38.732;-121.358;2022-12-10T01:26:47;101492.66;;;15.66
49785;BMP280;35679;38.732;-121.358;2022-12-10T01:29:36;101482.19;;;15.64
49785;BMP280;35679;38.732;-121.358;2022-12-10T01:32:28;101485.84;;;15.63
49785;BMP280;35679;38.732;-121.358;2022-12-10T01:35:18;101477.22;;;15.61
49785;BMP280;35679;38.732;-121.358;2022-12-10T01:38:07;101472.09;;;15.60
49785;BMP280;35679;38.732;-121.358;2022-12-10T01:40:58;101473.28;;;15.57
49785;BMP280;35679;38.732;-121.358;2022-12-10T01:43:58;101475.13;;;15.57
49785;BMP280;35679;38.732;-121.358;2022-12-10T01:46:50;101464.47;;;15.57
49785;BMP280;35679;38.732;-121.358;2022-12-10T01:49:40;101463.81;;;15.55
49785;BMP280;35679;38.732;-121.358;2022-12-10T01:52:32;101457.03;;;15.52
49785;BMP280;35679;38.732;-121.358;2022-12-10T01:55:39;101449.91;;;15.53
49785;BMP280;35679;38.732;-121.358;2022-12-10T01:58:28;101449.25;;;15.51
49785;BMP280;35679;38.732;-121.358;2022-12-10T02:02:06;101450.25;;;15.50
49785;BMP280;35679;38.732;-121.358;2022-12-10T02:05:21;101444.28;;;15.48
49785;BMP280;35679;38.732;-121.358;2022-12-10T02:15:33;101417.38;;;15.43
49785;BMP280;35679;38.732;-121.358;2022-12-10T02:21:38;101429.06;;;15.42
49785;BMP280;35679;38.732;-121.358;2022-12-10T02:24:34;101414.91;;;15.41
49785;BMP280;35679;38.732;-121.358;2022-12-10T02:27:46;101415.09;;;15.40
49785;BMP280;35679;38.732;-121.358;2022-12-10T02:30:39;101409.97;;;15.38
49785;BMP280;35679;38.732;-121.358;2022-12-10T02:33:30;101407.31;;;15.38
49785;BMP280;35679;38.732;-121.358;2022-12-10T02:36:22;101415.47;;;15.37
49785;BMP280;35679;38.732;-121.358;2022-12-10T02:39:18;101417.28;;;15.36
49785;BMP280;35679;38.732;-121.358;2022-12-10T02:42:13;101418.28;;;15.35
49785;BMP280;35679;38.732;-121.358;2022-12-10T02:45:05;101411.50;;;15.33
49785;BMP280;35679;38.732;-121.358;2022-12-10T02:47:58;101416.81;;;15.33
49785;BMP280;35679;38.732;-121.358;2022-12-10T02:50:54;101415.19;;;15.32
49785;BMP280;35679;38.732;-121.358;2022-12-10T02:53:44;101412.53;;;15.32
49785;BMP280;35679;38.732;-121.358;2022-12-10T02:56:44;101412.69;;;15.30
49785;BMP280;35679;38.732;-121.358;2022-12-10T03:06:27;101402.44;;;15.27
49785;BMP280;35679;38.732;-121.358;2022-12-10T03:09:24;101407.75;;;15.27
49785;BMP280;35679;38.732;-121.358;2022-12-10T03:12:44;101395.47;;;15.26
49785;BMP280;35679;38.732;-121.358;2022-12-10T03:15:39;101399.97;;;15.26
49785;BMP280;35679;38.732;-121.358;2022-12-10T03:18:31;101395.63;;;15.25
49785;BMP280;35679;38.732;-121.358;2022-12-10T03:21:25;101393.97;;;15.24
49785;BMP280;35679;38.732;-121.358;2022-12-10T03:24:17;101387.00;;;15.23
49785;BMP280;35679;38.732;-121.358;2022-12-10T03:27:09;101391.66;;;15.21
49785;BMP280;35679;38.732;-121.358;2022-12-10T03:30:07;101394.16;;;15.22
49785;BMP280;35679;38.732;-121.358;2022-12-10T03:32:59;101384.34;;;15.23
49785;BMP280;35679;38.732;-121.358;2022-12-10T03:35:49;101388.84;;;15.22
49785;BMP280;35679;38.732;-121.358;2022-12-10T03:38:39;101394.16;;;15.22
49785;BMP280;35679;38.732;-121.358;2022-12-10T03:41:29;101392.50;;;15.21
49785;BMP280;35679;38.732;-121.358;2022-12-10T03:44:30;101390.00;;;15.20
49785;BMP280;35679;38.732;-121.358;2022-12-10T03:47:20;101388.34;;;15.19
49785;BMP280;35679;38.732;-121.358;2022-12-10T03:50:10;101383.22;;;15.17
49785;BMP280;35679;38.732;-121.358;2022-12-10T03:52:59;101384.41;;;15.15
49785;BMP280;35679;38.732;-121.358;2022-12-10T03:55:49;101380.75;;;15.16
49785;BMP280;35679;38.732;-121.358;2022-12-10T03:58:39;101376.25;;;15.16
49785;BMP280;35679;38.732;-121.358;2022-12-10T04:01:31;101384.22;;;15.16
49785;BMP280;35679;38.732;-121.358;2022-12-10T04:04:27;101387.06;;;15.15
49785;BMP280;35679;38.732;-121.358;2022-12-10T04:07:16;101381.75;;;15.15
49785;BMP280;35679;38.732;-121.358;2022-12-10T04:10:06;101374.78;;;15.14
49785;BMP280;35679;38.732;-121.358;2022-12-10T04:12:56;101373.97;;;15.13
49785;BMP280;35679;38.732;-121.358;2022-12-10T04:16:04;101368.81;;;15.12
49785;BMP280;35679;38.732;-121.358;2022-12-10T04:19:14;101370.84;;;15.10
49785;BMP280;35679;38.732;-121.358;2022-12-10T04:22:04;101382.47;;;15.09
49785;BMP280;35679;38.732;-121.358;2022-12-10T04:25:12;101376.50;;;15.07
49785;BMP280;35679;38.732;-121.358;2022-12-10T04:28:20;101357.88;;;15.07
49785;BMP280;35679;38.732;-121.358;2022-12-10T04:31:09;101354.22;;;15.08
49785;BMP280;35679;38.732;-121.358;2022-12-10T04:33:59;101362.19;;;15.08
49785;BMP280;35679;38.732;-121.358;2022-12-10T04:36:49;101357.25;;;15.05
49785;BMP280;35679;38.732;-121.358;2022-12-10T04:39:40;101359.06;;;15.05
49785;BMP280;35679;38.732;-121.358;2022-12-10T04:42:30;101359.06;;;15.05
49785;BMP280;35679;38.732;-121.358;2022-12-10T04:45:20;101357.44;;;15.04
49785;BMP280;35679;38.732;-121.358;2022-12-10T04:48:11;101365.56;;;15.02
49785;BMP280;35679;38.732;-121.358;2022-12-10T04:51:02;101365.56;;;15.02
49785;BMP280;35679;38.732;-121.358;2022-12-10T04:53:54;101356.13;;;15.00
49785;BMP280;35679;38.732;-121.358;2022-12-10T04:56:45;101354.31;;;15.00
49785;BMP280;35679;38.732;-121.358;2022-12-10T04:59:35;101341.03;;;15.00
49785;BMP280;35679;38.732;-121.358;2022-12-10T05:02:25;101343.84;;;14.99
49785;BMP280;35679;38.732;-121.358;2022-12-10T05:05:15;101337.72;;;14.98
49785;BMP280;35679;38.732;-121.358;2022-12-10T05:08:04;101336.06;;;14.97
49785;BMP280;35679;38.732;-121.358;2022-12-10T05:11:07;101336.44;;;14.94
49785;BMP280;35679;38.732;-121.358;2022-12-10T05:13:58;101332.59;;;14.97
49785;BMP280;35679;38.732;-121.358;2022-12-10T05:16:49;101329.09;;;14.96
49785;BMP280;35679;38.732;-121.358;2022-12-10T05:19:39;101322.16;;;14.95
49785;BMP280;35679;38.732;-121.358;2022-12-10T05:22:28;101320.50;;;14.94
49785;BMP280;35679;38.732;-121.358;2022-12-10T05:25:36;101315.19;;;14.94
49785;BMP280;35679;38.732;-121.358;2022-12-10T05:28:46;101307.38;;;14.93
49785;BMP280;35679;38.732;-121.358;2022-12-10T05:31:36;101305.34;;;14.95
49785;BMP280;35679;38.732;-121.358;2022-12-10T05:34:25;101300.22;;;14.93
49785;BMP280;35679;38.732;-121.358;2022-12-10T05:37:15;101312.50;;;14.94
49785;BMP280;35679;38.732;-121.358;2022-12-10T05:40:05;101303.88;;;14.92
49785;BMP280;35679;38.732;-121.358;2022-12-10T05:42:55;101301.03;;;14.94
49785;BMP280;35679;38.732;-121.358;2022-12-10T05:45:46;101307.38;;;14.93
49785;BMP280;35679;38.732;-121.358;2022-12-10T05:48:36;101299.56;;;14.91
49785;BMP280;35679;38.732;-121.358;2022-12-10T05:51:29;101284.00;;;14.88
49785;BMP280;35679;38.732;-121.358;2022-12-10T05:54:18;101277.50;;;14.91
49785;BMP280;35679;38.732;-121.358;2022-12-10T05:57:09;101285.28;;;14.92
49785;BMP280;35679;38.732;-121.358;2022-12-10T05:59:58;101284.47;;;14.92
49785;BMP280;35679;38.732;-121.358;2022-12-10T06:02:48;101277.50;;;14.91
49785;BMP280;35679;38.732;-121.358;2022-12-10T06:05:39;101273.19;;;14.90
49785;BMP280;35679;38.732;-121.358;2022-12-10T06:08:28;101255.78;;;14.87
49785;BMP280;35679;38.732;-121.358;2022-12-10T06:11:18;101259.91;;;14.90
49785;BMP280;35679;38.732;-121.358;2022-12-10T06:14:09;101257.44;;;14.88
49785;BMP280;35679;38.732;-121.358;2022-12-10T06:16:59;101250.47;;;14.87
49785;BMP280;35679;38.732;-121.358;2022-12-10T06:19:48;101250.28;;;14.89
49785;BMP280;35679;38.732;-121.358;2022-12-10T06:22:38;101256.44;;;14.89
49785;BMP280;35679;38.732;-121.358;2022-12-10T06:25:27;101254.78;;;14.88
49785;BMP280;35679;38.732;-121.358;2022-12-10T06:28:17;101257.44;;;14.88
49785;BMP280;35679;38.732;-121.358;2022-12-10T06:31:06;101249.66;;;14.87
49785;BMP280;35679;38.732;-121.358;2022-12-10T06:33:56;101253.03;;;14.81
49785;BMP280;35679;38.732;-121.358;2022-12-10T06:36:45;101242.41;;;14.81
49785;BMP280;35679;38.732;-121.358;2022-12-10T06:39:35;101235.44;;;14.80
49785;BMP280;35679;38.732;-121.358;2022-12-10T06:42:24;101239.94;;;14.79
49785;BMP280;35679;38.732;-121.358;2022-12-10T06:45:14;101236.44;;;14.79
49785;BMP280;35679;38.732;-121.358;2022-12-10T06:48:04;101229.31;;;14.79
49785;BMP280;35679;38.732;-121.358;2022-12-10T06:50:55;101230.31;;;14.78
49785;BMP280;35679;38.732;-121.358;2022-12-10T06:53:45;101233.63;;;14.80
49785;BMP280;35679;38.732;-121.358;2022-12-10T06:56:34;101234.44;;;14.81
49785;BMP280;35679;38.732;-121.358;2022-12-10T06:59:24;101234.63;;;14.79
49785;BMP280;35679;38.732;-121.358;2022-12-10T07:02:14;101232.78;;;14.80
49785;BMP280;35679;38.732;-121.358;2022-12-10T07:05:04;101239.94;;;14.79
49785;BMP280;35679;38.732;-121.358;2022-12-10T07:07:53;101249.91;;;14.77
49785;BMP280;35679;38.732;-121.358;2022-12-10T07:10:43;101243.78;;;14.77
49785;BMP280;35679;38.732;-121.358;2022-12-10T07:13:33;101239.28;;;14.77
49785;BMP280;35679;38.732;-121.358;2022-12-10T07:16:26;101237.63;;;14.76
49785;BMP280;35679;38.732;-121.358;2022-12-10T07:19:15;101235.81;;;14.77
49785;BMP280;35679;38.732;-121.358;2022-12-10T07:22:04;101234.97;;;14.76
49785;BMP280;35679;38.732;-121.358;2022-12-10T07:24:54;101238.47;;;14.77
49785;BMP280;35679;38.732;-121.358;2022-12-10T07:27:43;101238.47;;;14.77
49785;BMP280;35679;38.732;-121.358;2022-12-10T07:30:33;101223.53;;;14.76
49785;BMP280;35679;38.732;-121.358;2022-12-10T07:33:22;101202.28;;;14.76
49785;BMP280;35679;38.732;-121.358;2022-12-10T07:36:12;101202.47;;;14.74
49785;BMP280;35679;38.732;-121.358;2022-12-10T07:39:06;101192.66;;;14.75
49785;BMP280;35679;38.732;-121.358;2022-12-10T07:41:56;101184.88;;;14.73
49785;BMP280;35679;38.732;-121.358;2022-12-10T07:44:48;101184.69;;;14.75
49785;BMP280;35679;38.732;-121.358;2022-12-10T07:47:38;101194.50;;;14.74
49785;BMP280;35679;38.732;-121.358;2022-12-10T07:50:28;101199.63;;;14.76
49785;BMP280;35679;38.732;-121.358;2022-12-10T07:53:17;101215.75;;;14.74
49785;BMP280;35679;38.732;-121.358;2022-12-10T07:56:07;101201.44;;;14.75
49785;BMP280;35679;38.732;-121.358;2022-12-10T07:58:56;101205.13;;;14.74
49785;BMP280;35679;38.732;-121.358;2022-12-10T08:01:46;101193.84;;;14.72
49785;BMP280;35679;38.732;-121.358;2022-12-10T08:04:36;101195.50;;;14.73
49785;BMP280;35679;38.732;-121.358;2022-12-10T08:07:26;101166.63;;;14.70
49785;BMP280;35679;38.732;-121.358;2022-12-10T08:10:15;101170.94;;;14.71
49785;BMP280;35679;38.732;-121.358;2022-12-10T08:13:06;101166.28;;;14.73
49785;BMP280;35679;38.732;-121.358;2022-12-10T08:16:07;101151.34;;;14.72
49785;BMP280;35679;38.732;-121.358;2022-12-10T08:19:00;101133.75;;;14.71
49785;BMP280;35679;38.732;-121.358;2022-12-10T08:21:50;101120.47;;;14.71
49785;BMP280;35679;38.732;-121.358;2022-12-10T08:24:40;101120.66;;;14.70
49785;BMP280;35679;38.732;-121.358;2022-12-10T08:27:30;101114.34;;;14.71
49785;BMP280;35679;38.732;-121.358;2022-12-10T08:30:20;101104.53;;;14.71
49785;BMP280;35679;38.732;-121.358;2022-12-10T08:33:10;101110.84;;;14.70
49785;BMP280;35679;38.732;-121.358;2022-12-10T08:36:00;101101.25;;;14.69
49785;BMP280;35679;38.732;-121.358;2022-12-10T08:38:50;101093.28;;;14.69
49785;BMP280;35679;38.732;-121.358;2022-12-10T08:41:39;101081.03;;;14.68
49785;BMP280;35679;38.732;-121.358;2022-12-10T08:44:28;101077.34;;;14.69
49785;BMP280;35679;38.732;-121.358;2022-12-10T08:47:18;101078.38;;;14.68
49785;BMP280;35679;38.732;-121.358;2022-12-10T08:50:08;101074.69;;;14.69
49785;BMP280;35679;38.732;-121.358;2022-12-10T08:52:58;101066.09;;;14.67
49785;BMP280;35679;38.732;-121.358;2022-12-10T08:55:52;101065.09;;;14.68
49785;BMP280;35679;38.732;-121.358;2022-12-10T08:58:42;101067.53;;;14.70
49785;BMP280;35679;38.732;-121.358;2022-12-10T09:01:32;101069.56;;;14.68
49785;BMP280;35679;38.732;-121.358;2022-12-10T09:04:21;101061.44;;;14.69
49785;BMP280;35679;38.732;-121.358;2022-12-10T09:07:11;101056.28;;;14.68
49785;BMP280;35679;38.732;-121.358;2022-12-10T09:10:00;101049.16;;;14.68
49785;BMP280;35679;38.732;-121.358;2022-12-10T09:12:50;101054.47;;;14.68
49785;BMP280;35679;38.732;-121.358;2022-12-10T09:15:39;101050.16;;;14.67
49785;BMP280;35679;38.732;-121.358;2022-12-10T09:18:29;101051.81;;;14.68
49785;BMP280;35679;38.732;-121.358;2022-12-10T09:21:19;101043.19;;;14.66
49785;BMP280;35679;38.732;-121.358;2022-12-10T09:24:09;101020.28;;;14.65
49785;BMP280;35679;38.732;-121.358;2022-12-10T09:27:00;101031.75;;;14.66
49785;BMP280;35679;38.732;-121.358;2022-12-10T09:29:50;101018.47;;;14.66
49785;BMP280;35679;38.732;-121.358;2022-12-10T09:32:40;101014.97;;;14.65
49785;BMP280;35679;38.732;-121.358;2022-12-10T09:35:30;101011.50;;;14.65
49785;BMP280;35679;38.732;-121.358;2022-12-10T09:38:20;101015.81;;;14.66
49785;BMP280;35679;38.732;-121.358;2022-12-10T09:47:10;101014.97;;;14.65
49785;BMP280;35679;38.732;-121.358;2022-12-10T09:50:22;101017.81;;;14.64
49785;BMP280;35679;38.732;-121.358;2022-12-10T09:53:14;101013.97;;;14.66
49785;BMP280;35679;38.732;-121.358;2022-12-10T09:56:09;100999.03;;;14.65
49785;BMP280;35679;38.732;-121.358;2022-12-10T09:59:16;100993.94;;;14.64
49785;BMP280;35679;38.732;-121.358;2022-12-10T10:02:24;100992.28;;;14.63
49785;BMP280;35679;38.732;-121.358;2022-12-10T10:05:24;100985.94;;;14.64
49785;BMP280;35679;38.732;-121.358;2022-12-10T10:08:28;100971.03;;;14.63
49785;BMP280;35679;38.732;-121.358;2022-12-10T10:11:33;100971.88;;;14.63
49785;BMP280;35679;38.732;-121.358;2022-12-10T10:14:26;100964.09;;;14.62
49785;BMP280;35679;38.732;-121.358;2022-12-10T10:17:20;100965.72;;;14.63
49785;BMP280;35679;38.732;-121.358;2022-12-10T10:20:16;100973.06;;;14.61
49785;BMP280;35679;38.732;-121.358;2022-12-10T10:23:07;100949.97;;;14.61
49785;BMP280;35679;38.732;-121.358;2022-12-10T10:25:57;100950.81;;;14.62
49785;BMP280;35679;38.732;-121.358;2022-12-10T10:28:49;100957.94;;;14.61
49785;BMP280;35679;38.732;-121.358;2022-12-10T10:31:42;100960.59;;;14.61
49785;BMP280;35679;38.732;-121.358;2022-12-10T10:34:32;100956.28;;;14.60
49785;BMP280;35679;38.732;-121.358;2022-12-10T10:37:50;100964.09;;;14.62
49785;BMP280;35679;38.732;-121.358;2022-12-10T10:40:43;100965.09;;;14.61
49785;BMP280;35679;38.732;-121.358;2022-12-10T10:43:41;100960.59;;;14.61
49785;BMP280;35679;38.732;-121.358;2022-12-10T10:46:34;100969.41;;;14.62
49785;BMP280;35679;38.732;-121.358;2022-12-10T10:49:33;100955.47;;;14.60
49785;BMP280;35679;38.732;-121.358;2022-12-10T10:52:22;100949.34;;;14.59
49785;BMP280;35679;38.732;-121.358;2022-12-10T10:55:49;100940.34;;;14.60
49785;BMP280;35679;38.732;-121.358;2022-12-10T10:58:31;100922.81;;;14.59
49785;BMP280;35679;38.732;-121.358;2022-12-10T11:01:24;100915.84;;;14.58
49785;BMP280;35679;38.732;-121.358;2022-12-10T11:04:15;100901.56;;;14.59
49785;BMP280;35679;38.732;-121.358;2022-12-10T11:07:22;100889.91;;;14.60
49785;BMP280;35679;38.732;-121.358;2022-12-10T11:10:20;100886.63;;;14.58
49785;BMP280;35679;38.732;-121.358;2022-12-10T11:13:27;100886.44;;;14.60
49785;BMP280;35679;38.732;-121.358;2022-12-10T11:16:21;100890.09;;;14.59
49785;BMP280;35679;38.732;-121.358;2022-12-10T11:19:22;100893.59;;;14.59
49785;BMP280;35679;38.732;-121.358;2022-12-10T11:22:35;100899.72;;;14.60
49785;BMP280;35679;38.732;-121.358;2022-12-10T11:31:59;100910.13;;;14.61
49785;BMP280;35679;38.732;-121.358;2022-12-10T11:35:09;100889.47;;;14.57
49785;BMP280;35679;38.732;-121.358;2022-12-10T11:41:17;100881.31;;;14.58
49785;BMP280;35679;38.732;-121.358;2022-12-10T11:44:34;100877.00;;;14.57
49785;BMP280;35679;38.732;-121.358;2022-12-10T11:50:27;100870.50;;;14.60
49785;BMP280;35679;38.732;-121.358;2022-12-10T11:56:31;100867.03;;;14.59
49785;BMP280;35679;38.732;-121.358;2022-12-10T12:05:48;100835.34;;;14.58
49785;BMP280;35679;38.732;-121.358;2022-12-10T12:09:06;100834.53;;;14.57
49785;BMP280;35679;38.732;-121.358;2022-12-10T12:15:28;100814.09;;;14.58
49785;BMP280;35679;38.732;-121.358;2022-12-10T12:18:27;100803.69;;;14.56
49785;BMP280;35679;38.732;-121.358;2022-12-10T12:21:17;100803.69;;;14.56
49785;BMP280;35679;38.732;-121.358;2022-12-10T12:24:20;100789.59;;;14.56
49785;BMP280;35679;38.732;-121.358;2022-12-10T12:27:46;100780.78;;;14.55
49785;BMP280;35679;38.732;-121.358;2022-12-10T12:30:34;100774.88;;;14.53
49785;BMP280;35679;38.732;-121.358;2022-12-10T12:36:20;100778.13;;;14.55
49785;BMP280;35679;38.732;-121.358;2022-12-10T12:39:28;100768.53;;;14.54
49785;BMP280;35679;38.732;-121.358;2022-12-10T12:42:31;100760.38;;;14.56
49785;BMP280;35679;38.732;-121.358;2022-12-10T12:45:51;100749.94;;;14.54
49785;BMP280;35679;38.732;-121.358;2022-12-10T12:48:55;100753.22;;;14.56
49785;BMP280;35679;38.732;-121.358;2022-12-10T12:54:58;100748.94;;;14.55
49785;BMP280;35679;38.732;-121.358;2022-12-10T12:57:56;100711.16;;;14.53
49785;BMP280;35679;38.732;-121.358;2022-12-10T13:00:50;100699.69;;;14.53
49785;BMP280;35679;38.732;-121.358;2022-12-10T13:03:43;100711.16;;;14.53
49785;BMP280;35679;38.732;-121.358;2022-12-10T13:06:37;100700.53;;;14.53
49785;BMP280;35679;38.732;-121.358;2022-12-10T13:09:27;100692.72;;;14.52
49785;BMP280;35679;38.732;-121.358;2022-12-10T13:15:20;100673.22;;;14.59
49785;BMP280;35679;38.732;-121.358;2022-12-10T13:21:29;100663.00;;;14.63
49785;BMP280;35679;38.732;-121.358;2022-12-10T13:24:21;100664.06;;;14.68
49785;BMP280;35679;38.732;-121.358;2022-12-10T13:27:32;100661.84;;;14.72
49785;BMP280;35679;38.732;-121.358;2022-12-10T13:30:41;100650.03;;;14.74
49785;BMP280;35679;38.732;-121.358;2022-12-10T13:33:50;100651.03;;;14.73
49785;BMP280;35679;38.732;-121.358;2022-12-10T13:42:38;100664.75;;;14.77
49785;BMP280;35679;38.732;-121.358;2022-12-10T13:45:46;100640.84;;;14.77
49785;BMP280;35679;38.732;-121.358;2022-12-10T13:48:37;100648.59;;;14.78
49785;BMP280;35679;38.732;-121.358;2022-12-10T13:54:53;100656.16;;;14.81
49785;BMP280;35679;38.732;-121.358;2022-12-10T14:00:58;100656.16;;;14.81
49785;BMP280;35679;38.732;-121.358;2022-12-10T14:07:14;100655.16;;;14.82
49785;BMP280;35679;38.732;-121.358;2022-12-10T14:10:10;100649.03;;;14.82
49785;BMP280;35679;38.732;-121.358;2022-12-10T14:13:04;100639.22;;;14.82
49785;BMP280;35679;38.732;-121.358;2022-12-10T14:15:55;100626.78;;;14.83
49785;BMP280;35679;38.732;-121.358;2022-12-10T14:19:12;100623.28;;;14.82
49785;BMP280;35679;38.732;-121.358;2022-12-10T14:22:05;100606.34;;;14.83
49785;BMP280;35679;38.732;-121.358;2022-12-10T14:25:01;100568.53;;;14.81
49785;BMP280;35679;38.732;-121.358;2022-12-10T14:27:54;100573.47;;;14.84
49785;BMP280;35679;38.732;-121.358;2022-12-10T14:30:50;100544.84;;;14.86
49785;BMP280;35679;38.732;-121.358;2022-12-10T14:33:40;100527.09;;;14.87
49785;BMP280;35679;38.732;-121.358;2022-12-10T14:36:32;100490.09;;;14.85
49785;BMP280;35679;38.732;-121.358;2022-12-10T14:39:28;100483.75;;;14.86
49785;BMP280;35679;38.732;-121.358;2022-12-10T14:42:22;100483.56;;;14.88
49785;BMP280;35679;38.732;-121.358;2022-12-10T14:45:14;100521.38;;;14.90
49785;BMP280;35679;38.732;-121.358;2022-12-10T14:48:04;100546.31;;;14.95
49785;BMP280;35679;38.732;-121.358;2022-12-10T14:51:16;100550.81;;;14.95
49785;BMP280;35679;38.732;-121.358;2022-12-10T14:54:43;100552.88;;;14.99
49785;BMP280;35679;38.732;-121.358;2022-12-10T14:57:39;100557.75;;;14.96
49785;BMP280;35679;38.732;-121.358;2022-12-10T15:00:30;100526.69;;;14.96
49785;BMP280;35679;38.732;-121.358;2022-12-10T15:03:28;100484.81;;;14.98
49785;BMP280;35679;38.732;-121.358;2022-12-10T15:06:19;100482.16;;;14.98
49785;BMP280;35679;38.732;-121.358;2022-12-10T15:09:18;100472.53;;;14.97
49785;BMP280;35679;38.732;-121.358;2022-12-10T15:15:28;100448.84;;;14.96
49785;BMP280;35679;38.732;-121.358;2022-12-10T15:18:37;100445.97;;;14.97
49785;BMP280;35679;38.732;-121.358;2022-12-10T15:21:27;100442.94;;;15.00
49785;BMP280;35679;38.732;-121.358;2022-12-10T15:24:35;100434.13;;;15.00
49785;BMP280;35679;38.732;-121.358;2022-12-10T15:27:26;100440.50;;;15.05
49785;BMP280;35679;38.732;-121.358;2022-12-10T15:30:44;100463.56;;;15.05
49785;BMP280;35679;38.732;-121.358;2022-12-10T15:33:46;100434.56;;;15.03
49785;BMP280;35679;38.732;-121.358;2022-12-10T15:36:49;100446.81;;;15.04
49785;BMP280;35679;38.732;-121.358;2022-12-10T15:39:46;100500.59;;;15.06
49785;BMP280;35679;38.732;-121.358;2022-12-10T15:42:41;100500.59;;;15.06
49785;BMP280;35679;38.732;-121.358;2022-12-10T15:45:40;100494.06;;;15.08
49785;BMP280;35679;38.732;-121.358;2022-12-10T15:48:30;100451.94;;;15.12
49785;BMP280;35679;38.732;-121.358;2022-12-10T15:51:20;100404.31;;;15.04
49785;BMP280;35679;38.732;-121.358;2022-12-10T15:54:28;100419.63;;;15.02
49785;BMP280;35679;38.732;-121.358;2022-12-10T15:57:32;100454.00;;;15.04
49785;BMP280;35679;38.732;-121.358;2022-12-10T16:00:25;100485.44;;;15.07
49785;BMP280;35679;38.732;-121.358;2022-12-10T16:03:16;100475.25;;;15.04
49785;BMP280;35679;38.732;-121.358;2022-12-10T16:06:08;100474.59;;;15.02
49785;BMP280;35679;38.732;-121.358;2022-12-10T16:09:02;100456.00;;;15.02
49785;BMP280;35679;38.732;-121.358;2022-12-10T16:11:52;100453.78;;;15.05
49785;BMP280;35679;38.732;-121.358;2022-12-10T16:14:51;100459.69;;;15.07
49785;BMP280;35679;38.732;-121.358;2022-12-10T16:17:45;100462.75;;;15.04
49785;BMP280;35679;38.732;-121.358;2022-12-10T16:20:35;100455.59;;;15.05
49785;BMP280;35679;38.732;-121.358;2022-12-10T16:23:26;100440.28;;;15.07
49785;BMP280;35679;38.732;-121.358;2022-12-10T16:26:21;100424.97;;;15.08
49785;BMP280;35679;38.732;-121.358;2022-12-10T16:29:13;100402.88;;;15.08
49785;BMP280;35679;38.732;-121.358;2022-12-10T16:32:05;100441.94;;;15.07
49785;BMP280;35679;38.732;-121.358;2022-12-10T16:34:55;100400.22;;;15.08
49785;BMP280;35679;38.732;-121.358;2022-12-10T16:37:47;100409.84;;;15.09
49785;BMP280;35679;38.732;-121.358;2022-12-10T16:40:40;100391.22;;;15.09
49785;BMP280;35679;38.732;-121.358;2022-12-10T16:43:30;100390.00;;;15.11
49785;BMP280;35679;38.732;-121.358;2022-12-10T16:46:23;100380.41;;;15.10
49785;BMP280;35679;38.732;-121.358;2022-12-10T16:49:13;100388.38;;;15.10
49785;BMP280;35679;38.732;-121.358;2022-12-10T16:52:03;100399.84;;;15.11
49785;BMP280;35679;38.732;-121.358;2022-12-10T16:54:53;100396.97;;;15.12
49785;BMP280;35679;38.732;-121.358;2022-12-10T16:57:42;100389.41;;;15.16
49785;BMP280;35679;38.732;-121.358;2022-12-10T17:00:34;100397.16;;;15.17
49785;BMP280;35679;38.732;-121.358;2022-12-10T17:03:25;100368.53;;;15.19
49785;BMP280;35679;38.732;-121.358;2022-12-10T17:06:18;100368.16;;;15.22
49785;BMP280;35679;38.732;-121.358;2022-12-10T17:09:07;100403.75;;;15.21
49785;BMP280;35679;38.732;-121.358;2022-12-10T17:11:58;100388.59;;;15.22